createdAt,value
2018-05-08T00:00:00.080Z,100130.52
2018-05-08T00:02:28.560Z,100127.64
2018-05-08T00:04:56.989Z,100126.22
2018-05-08T00:07:25.405Z,100122.11
2018-05-08T00:09:53.906Z,100123.69
2018-05-08T00:12:22.321Z,100119.61
2018-05-08T00:14:50.737Z,100119.05
2018-05-08T00:17:19.192Z,100119.87
2018-05-08T00:19:47.609Z,100119.68
2018-05-08T00:22:16.038Z,100116.80
2018-05-08T00:24:44.520Z,100112.41
2018-05-08T00:27:12.958Z,100117.24
2018-05-08T00:29:41.403Z,100112.56
2018-05-08T00:32:09.869Z,100108.53
2018-05-08T00:34:38.292Z,100106.55
2018-05-08T00:37:06.712Z,100105.61
2018-05-08T00:39:35.176Z,100110.33
2018-05-08T00:42:03.607Z,100108.41
2018-05-08T00:44:32.026Z,100115.89
2018-05-08T00:47:00.664Z,100104.38
2018-05-08T00:49:29.085Z,100107.53
2018-05-08T00:51:57.513Z,100111.59
2018-05-08T00:54:38.034Z,100113.27
2018-05-08T00:57:06.463Z,100109.17
2018-05-08T00:59:34.888Z,100116.19
2018-05-08T01:02:03.349Z,100112.57
2018-05-08T01:04:31.807Z,100112.03
2018-05-08T01:07:00.223Z,100112.22
2018-05-08T01:09:28.678Z,100113.05
2018-05-08T01:11:57.115Z,100109.33
2018-05-08T01:14:25.546Z,100110.44
2018-05-08T01:16:54.017Z,100118.41
2018-05-08T01:19:22.477Z,100114.08
2018-05-08T01:21:50.899Z,100108.18
2018-05-08T01:24:19.382Z,100109.53
2018-05-08T01:26:47.802Z,100102.98
2018-05-08T01:29:16.233Z,100109.20
2018-05-08T01:31:44.706Z,100107.75
2018-05-08T01:34:13.121Z,100103.67
2018-05-08T01:36:41.532Z,100096.42
2018-05-08T01:39:10.015Z,100098.22
2018-05-08T01:41:38.469Z,100098.33
2018-05-08T01:44:06.930Z,100099.05
2018-05-08T01:46:35.415Z,100094.01
2018-05-08T01:49:03.849Z,100095.88
2018-05-08T01:51:32.276Z,100088.73
2018-05-08T01:54:00.767Z,100090.80
2018-05-08T01:56:29.197Z,100090.28
2018-05-08T01:58:57.965Z,100084.77
2018-05-08T02:01:26.442Z,100079.58
2018-05-08T02:03:54.853Z,100086.62
2018-05-08T02:06:23.266Z,100084.02
2018-05-08T02:08:51.745Z,100084.17
2018-05-08T02:11:20.160Z,100080.32
2018-05-08T02:13:48.578Z,100076.66
2018-05-08T02:16:17.050Z,100071.72
2018-05-08T02:18:45.468Z,100071.46
2018-05-08T02:21:13.883Z,100072.80
2018-05-08T02:23:42.342Z,100074.70
2018-05-08T02:26:10.752Z,100073.12
2018-05-08T02:28:39.209Z,100074.82
2018-05-08T02:31:07.719Z,100068.39
2018-05-08T02:33:36.157Z,100059.58
2018-05-08T02:36:04.592Z,100061.82
2018-05-08T02:38:33.059Z,100060.23
2018-05-08T02:41:01.492Z,100058.05
2018-05-08T02:43:29.905Z,100051.36
2018-05-08T02:45:58.380Z,100052.37
2018-05-08T02:48:26.818Z,100048.83
2018-05-08T02:50:55.250Z,100052.20
2018-05-08T02:53:23.708Z,100048.34
2018-05-08T02:55:52.133Z,100052.19
2018-05-08T02:58:20.561Z,100049.91
2018-05-08T03:00:49.032Z,100056.30
2018-05-08T03:03:17.446Z,100059.15
2018-05-08T03:05:45.864Z,100055.36
2018-05-08T03:08:14.341Z,100060.55
2018-05-08T03:10:42.771Z,100057.06
2018-05-08T03:13:11.198Z,100054.80
2018-05-08T03:15:39.652Z,100057.90
2018-05-08T03:18:08.085Z,100055.48
2018-05-08T03:20:36.512Z,100061.43
2018-05-08T03:23:05.000Z,100055.46
2018-05-08T03:25:33.422Z,100056.64
2018-05-08T03:28:01.852Z,100050.42
2018-05-08T03:30:30.317Z,100053.47
2018-05-08T03:32:58.736Z,100055.40
2018-05-08T03:35:27.164Z,100052.84
2018-05-08T03:37:55.619Z,100046.38
2018-05-08T03:40:24.052Z,100047.23
2018-05-08T03:42:52.480Z,100053.37
2018-05-08T03:45:20.961Z,100050.85
2018-05-08T03:47:49.381Z,100048.88
2018-05-08T03:50:17.796Z,100053.98
2018-05-08T03:52:46.394Z,100060.47
2018-05-08T03:55:14.817Z,100059.90
2018-05-08T03:57:43.236Z,100058.41
2018-05-08T04:00:23.529Z,100056.05
2018-05-08T04:03:03.781Z,100056.89
2018-05-08T04:05:43.881Z,100055.09
2018-05-08T04:08:22.121Z,100049.23
2018-05-08T04:10:50.535Z,100049.00
2018-05-08T04:13:18.977Z,100045.50
2018-05-08T04:15:47.413Z,100036.81
2018-05-08T04:18:15.869Z,100035.30
2018-05-08T04:20:44.297Z,100041.70
2018-05-08T04:23:13.648Z,100033.93
2018-05-08T04:25:42.132Z,100033.59
2018-05-08T04:28:10.559Z,100027.37
2018-05-08T04:30:38.995Z,100026.09
2018-05-08T04:33:07.475Z,100031.02
2018-05-08T04:35:35.928Z,100028.98
2018-05-08T04:38:04.353Z,100025.55
2018-05-08T04:40:32.827Z,100031.19
2018-05-08T04:43:01.258Z,100026.95
2018-05-08T04:45:29.687Z,100022.52
2018-05-08T04:47:58.160Z,100029.22
2018-05-08T04:50:26.581Z,100028.41
2018-05-08T04:52:55.006Z,100026.06
2018-05-08T04:55:23.492Z,100026.72
2018-05-08T04:57:51.921Z,100024.66
2018-05-08T05:00:20.345Z,100024.95
2018-05-08T05:02:48.834Z,100018.87
2018-05-08T05:05:17.280Z,100021.95
2018-05-08T05:07:45.708Z,100017.17
2018-05-08T05:10:14.163Z,100017.84
2018-05-08T05:12:42.586Z,100013.53
2018-05-08T05:15:11.077Z,100019.16
2018-05-08T05:17:39.638Z,100012.42
2018-05-08T05:20:08.061Z,100010.63
2018-05-08T05:22:36.541Z,100008.02
2018-05-08T05:25:05.013Z,100003.14
2018-05-08T05:27:33.432Z,100003.73
2018-05-08T05:30:01.853Z,100003.21
2018-05-08T05:32:30.327Z,100001.64
2018-05-08T05:34:58.751Z,99998.34
2018-05-08T05:37:27.184Z,99990.22
2018-05-08T05:39:55.663Z,99994.68
2018-05-08T05:42:24.072Z,99993.73
2018-05-08T05:44:52.493Z,99991.09
2018-05-08T05:47:21.009Z,99993.47
2018-05-08T05:49:49.417Z,99993.39
2018-05-08T05:52:17.835Z,99988.28
2018-05-08T05:54:46.311Z,99989.17
2018-05-08T05:57:14.723Z,99991.78
2018-05-08T05:59:43.205Z,99989.27
2018-05-08T06:02:11.663Z,99988.94
2018-05-08T06:04:40.083Z,99982.26
2018-05-08T06:07:08.501Z,99987.72
2018-05-08T06:09:36.977Z,99975.98
2018-05-08T06:12:05.445Z,99974.52
2018-05-08T06:14:33.866Z,99974.54
2018-05-08T06:17:02.344Z,99974.73
2018-05-08T06:19:30.777Z,99983.95
2018-05-08T06:21:59.192Z,99975.88
2018-05-08T06:24:27.672Z,99976.06
2018-05-08T06:26:56.101Z,99978.56
2018-05-08T06:29:24.524Z,99966.59
2018-05-08T06:31:52.989Z,99972.02
2018-05-08T06:34:21.400Z,99963.10
2018-05-08T06:36:49.818Z,99965.88
2018-05-08T06:39:18.272Z,99962.76
2018-05-08T06:41:46.684Z,99962.18
2018-05-08T06:44:15.100Z,99959.86
2018-05-08T06:46:43.695Z,99957.42
2018-05-08T06:49:12.062Z,99962.20
2018-05-08T06:51:40.482Z,99957.44
2018-05-08T06:54:08.955Z,99960.06
2018-05-08T06:56:37.368Z,99956.37
2018-05-08T06:59:05.776Z,99952.03
2018-05-08T07:01:34.235Z,99951.29
2018-05-08T07:04:02.704Z,99957.25
2018-05-08T07:06:31.113Z,99950.64
2018-05-08T07:08:59.570Z,99949.09
2018-05-08T07:11:27.984Z,99952.02
2018-05-08T07:13:56.406Z,99950.64
2018-05-08T07:16:24.873Z,99955.98
2018-05-08T07:18:53.289Z,99949.81
2018-05-08T07:21:21.723Z,99949.81
2018-05-08T07:23:50.184Z,99948.35
2018-05-08T07:26:18.607Z,99951.15
2018-05-08T07:28:47.057Z,99948.83
2018-05-08T07:31:15.509Z,99946.39
2018-05-08T07:33:43.914Z,99954.53
2018-05-08T07:36:12.330Z,99950.86
2018-05-08T07:38:40.785Z,99956.13
2018-05-08T07:41:09.245Z,99952.03
2018-05-08T07:43:37.665Z,99956.21
2018-05-08T07:46:06.160Z,99949.67
2018-05-08T07:48:34.581Z,99946.65
2018-05-08T07:51:03.017Z,99948.58
2018-05-08T07:53:31.464Z,99943.59
2018-05-08T07:55:59.885Z,99944.24
2018-05-08T07:58:28.348Z,99942.13
2018-05-08T08:00:56.805Z,99950.20
2018-05-08T08:03:25.236Z,99949.44
2018-05-08T08:05:53.670Z,99954.28
2018-05-08T08:08:22.165Z,99949.42
2018-05-08T08:10:50.585Z,99948.42
2018-05-08T08:13:19.030Z,99943.27
2018-05-08T08:15:47.495Z,99944.79
2018-05-08T08:18:15.914Z,99944.48
2018-05-08T08:20:44.367Z,99940.39
2018-05-08T08:23:12.853Z,99940.29
2018-05-08T08:25:41.401Z,99941.97
2018-05-08T08:28:09.819Z,99939.31
2018-05-08T08:30:38.329Z,99931.09
2018-05-08T08:33:06.761Z,99934.00
2018-05-08T08:35:35.223Z,99931.17
2018-05-08T08:38:03.714Z,99924.52
2018-05-08T08:40:32.124Z,99924.22
2018-05-08T08:43:00.561Z,99926.52
2018-05-08T08:45:29.011Z,99921.34
2018-05-08T08:47:57.460Z,99916.81
2018-05-08T08:50:25.873Z,99918.75
2018-05-08T08:52:54.320Z,99910.50
2018-05-08T08:55:22.724Z,99911.91
2018-05-08T08:57:51.143Z,99913.84
2018-05-08T09:00:19.601Z,99904.42
2018-05-08T09:02:48.008Z,99905.12
2018-05-08T09:05:16.446Z,99911.56
2018-05-08T09:07:44.934Z,99898.58
2018-05-08T09:10:13.385Z,99893.48
2018-05-08T09:12:41.800Z,99888.60
2018-05-08T09:15:10.244Z,99890.64
2018-05-08T09:17:38.661Z,99886.00
2018-05-08T09:20:07.080Z,99883.41
2018-05-08T09:22:35.543Z,99886.66
2018-05-08T09:25:04.413Z,99883.62
2018-05-08T09:27:32.902Z,99881.55
2018-05-08T09:30:01.325Z,99873.28
2018-05-08T09:32:29.747Z,99885.28
2018-05-08T09:34:58.153Z,99874.77
2018-05-08T09:37:26.616Z,99873.35
2018-05-08T09:39:55.055Z,99870.73
2018-05-08T09:42:23.472Z,99865.09
2018-05-08T09:44:51.928Z,99857.06
2018-05-08T09:47:20.352Z,99857.45
2018-05-08T09:49:48.761Z,99850.04
2018-05-08T09:52:17.218Z,99852.25
2018-05-08T09:54:45.642Z,99843.05
2018-05-08T09:57:14.052Z,99849.46
2018-05-08T09:59:42.528Z,99847.11
2018-05-08T10:02:10.961Z,99842.52
2018-05-08T10:04:39.371Z,99838.36
2018-05-08T10:07:07.836Z,99842.02
2018-05-08T10:09:36.246Z,99839.77
2018-05-08T10:12:04.672Z,99833.57
2018-05-08T10:14:33.153Z,99830.25
2018-05-08T10:17:01.564Z,99824.38
2018-05-08T10:19:30.000Z,99825.35
2018-05-08T10:21:58.460Z,99820.95
2018-05-08T10:24:26.889Z,99818.59
2018-05-08T10:26:55.465Z,99812.88
2018-05-08T10:29:23.931Z,99816.13
2018-05-08T10:31:52.407Z,99807.59
2018-05-08T10:34:20.831Z,99810.42
2018-05-08T10:36:49.303Z,99805.89
2018-05-08T10:39:17.757Z,99789.44
2018-05-08T10:41:46.181Z,99789.22
2018-05-08T10:44:14.632Z,99784.50
2018-05-08T10:46:43.051Z,99795.53
2018-05-08T10:49:11.487Z,99788.73
2018-05-08T10:51:39.949Z,99781.48
2018-05-08T10:54:08.382Z,99783.30
2018-05-08T10:56:36.793Z,99778.73
2018-05-08T10:59:05.279Z,99780.52
2018-05-08T11:01:33.698Z,99776.34
2018-05-08T11:04:02.140Z,99770.36
2018-05-08T11:06:30.625Z,99771.81
2018-05-08T11:08:59.063Z,99762.27
2018-05-08T11:11:27.483Z,99761.95
2018-05-08T11:13:55.937Z,99757.50
2018-05-08T11:16:24.348Z,99756.50
2018-05-08T11:18:52.772Z,99748.83
2018-05-08T11:21:21.236Z,99746.75
2018-05-08T11:23:49.652Z,99748.47
2018-05-08T11:26:18.134Z,99742.98
2018-05-08T11:28:46.596Z,99742.92
2018-05-08T11:31:15.007Z,99741.49
2018-05-08T11:33:43.432Z,99732.89
2018-05-08T11:36:11.893Z,99729.88
2018-05-08T11:38:40.300Z,99728.18
2018-05-08T11:41:08.729Z,99729.06
2018-05-08T11:43:37.180Z,99726.91
2018-05-08T11:46:05.592Z,99717.80
2018-05-08T11:48:34.121Z,99719.30
2018-05-08T11:51:02.590Z,99721.52
2018-05-08T11:53:31.008Z,99711.28
2018-05-08T11:55:59.441Z,99713.47
2018-05-08T11:58:27.916Z,99708.12
2018-05-08T12:00:56.410Z,99707.45
2018-05-08T12:03:24.793Z,99699.88
2018-05-08T12:05:53.289Z,99700.41
2018-05-08T12:08:21.704Z,99696.33
2018-05-08T12:10:50.112Z,99693.45
2018-05-08T12:13:18.592Z,99684.35
2018-05-08T12:15:47.012Z,99686.27
2018-05-08T12:18:15.420Z,99679.45
2018-05-08T12:20:43.915Z,99677.68
2018-05-08T12:23:12.328Z,99684.34
2018-05-08T12:25:40.754Z,99685.14
2018-05-08T12:28:09.212Z,99670.40
2018-05-08T12:30:37.811Z,99668.77
2018-05-08T12:33:06.096Z,99665.92
2018-05-08T12:35:34.545Z,99680.64
2018-05-08T12:38:02.949Z,99666.31
2018-05-08T12:40:31.412Z,99652.63
2018-05-08T12:42:59.865Z,99650.27
2018-05-08T12:45:28.280Z,99647.83
2018-05-08T12:47:56.733Z,99645.09
2018-05-08T12:50:25.265Z,99641.33
2018-05-08T12:52:53.646Z,99634.73
2018-05-08T12:55:22.071Z,99631.20
2018-05-08T12:57:50.533Z,99628.92
2018-05-08T13:00:18.951Z,99635.16
2018-05-08T13:02:47.412Z,99632.08
2018-05-08T13:05:15.887Z,99624.25
2018-05-08T13:07:44.318Z,99628.66
2018-05-08T13:10:12.732Z,99624.71
2018-05-08T13:12:41.188Z,99620.94
2018-05-08T13:15:09.600Z,99624.22
2018-05-08T13:17:38.017Z,99623.75
2018-05-08T13:20:06.509Z,99623.61
2018-05-08T13:22:34.937Z,99615.41
2018-05-08T13:25:03.372Z,99610.95
2018-05-08T13:27:31.845Z,99607.78
2018-05-08T13:30:00.270Z,99599.02
2018-05-08T13:32:28.691Z,99599.44
2018-05-08T13:34:57.166Z,99597.26
2018-05-08T13:37:25.577Z,99597.41
2018-05-08T13:39:54.018Z,99587.98
2018-05-08T13:42:22.515Z,99596.46
2018-05-08T13:44:50.934Z,99586.01
2018-05-08T13:47:19.348Z,99579.84
2018-05-08T13:49:47.803Z,99579.58
2018-05-08T13:52:16.218Z,99575.03
2018-05-08T13:54:44.636Z,99568.47
2018-05-08T13:57:13.092Z,99572.73
2018-05-08T13:59:41.794Z,99568.61
2018-05-08T14:02:10.240Z,99560.83
2018-05-08T14:04:38.694Z,99566.30
2018-05-08T14:07:07.145Z,99562.70
2018-05-08T14:09:35.582Z,99571.51
2018-05-08T14:12:04.055Z,99558.73
2018-05-08T14:14:32.487Z,99555.84
2018-05-08T14:17:01.132Z,99548.06
2018-05-08T14:19:29.629Z,99542.98
2018-05-08T14:21:58.032Z,99549.43
2018-05-08T14:24:26.443Z,99539.84
2018-05-08T14:26:54.899Z,99538.88
2018-05-08T14:29:23.312Z,99542.78
2018-05-08T14:31:51.722Z,99540.80
2018-05-08T14:34:20.176Z,99535.83
2018-05-08T14:36:48.607Z,99530.19
2018-05-08T14:39:17.025Z,99535.27
2018-05-08T14:41:45.515Z,99524.16
2018-05-08T14:44:13.969Z,99519.50
2018-05-08T14:46:42.394Z,99522.86
2018-05-08T14:49:10.968Z,99504.41
2018-05-08T14:51:39.303Z,99503.14
2018-05-08T14:54:07.724Z,99501.77
2018-05-08T14:56:36.207Z,99500.48
2018-05-08T14:59:04.653Z,99502.63
2018-05-08T15:01:33.106Z,99500.83
2018-05-08T15:04:01.588Z,99498.24
2018-05-08T15:06:30.045Z,99500.83
2018-05-08T15:08:58.455Z,99506.84
2018-05-08T15:11:26.924Z,99501.91
2018-05-08T15:13:55.340Z,99497.11
2018-05-08T15:16:23.757Z,99501.56
2018-05-08T15:18:52.242Z,99508.09
2018-05-08T15:21:20.653Z,99501.14
2018-05-08T15:23:49.059Z,99497.98
2018-05-08T15:26:17.702Z,99492.78
2018-05-08T15:28:46.117Z,99499.86
2018-05-08T15:31:14.556Z,99491.11
2018-05-08T15:33:43.010Z,99497.32
2018-05-08T15:36:11.425Z,99489.79
2018-05-08T15:38:39.834Z,99484.06
2018-05-08T15:41:08.335Z,99484.34
2018-05-08T15:43:36.744Z,99480.09
2018-05-08T15:46:05.157Z,99481.86
2018-05-08T15:48:33.634Z,99471.59
2018-05-08T15:51:02.052Z,99473.77
2018-05-08T15:53:30.477Z,99463.22
2018-05-08T15:55:59.016Z,99464.53
2018-05-08T15:58:27.957Z,99465.06
2018-05-08T16:00:56.378Z,99459.17
2018-05-08T16:03:24.851Z,99450.01
2018-05-08T16:05:53.295Z,99453.03
2018-05-08T16:08:21.711Z,99455.77
2018-05-08T16:10:50.202Z,99441.83
2018-05-08T16:13:18.621Z,99446.42
2018-05-08T16:15:47.054Z,99444.09
2018-05-08T16:18:15.508Z,99448.58
2018-05-08T16:20:43.940Z,99445.27
2018-05-08T16:23:12.348Z,99442.69
2018-05-08T16:25:40.809Z,99435.19
2018-05-08T16:28:09.217Z,99437.20
2018-05-08T16:30:37.785Z,99432.95
2018-05-08T16:33:06.138Z,99437.23
2018-05-08T16:35:34.547Z,99432.06
2018-05-08T16:38:02.964Z,99431.88
2018-05-08T16:40:31.420Z,99438.01
2018-05-08T16:42:59.832Z,99436.76
2018-05-08T16:45:28.252Z,99437.84
2018-05-08T16:47:56.728Z,99436.69
2018-05-08T16:50:25.144Z,99435.94
2018-05-08T16:52:53.562Z,99432.34
2018-05-08T16:55:22.024Z,99430.84
2018-05-08T16:57:50.791Z,99426.02
2018-05-08T17:00:19.210Z,99418.38
2018-05-08T17:02:47.738Z,99421.61
2018-05-08T17:05:16.144Z,99422.00
2018-05-08T17:07:44.548Z,99416.05
2018-05-08T17:10:12.993Z,99420.81
2018-05-08T17:12:41.433Z,99422.36
2018-05-08T17:15:09.877Z,99419.89
2018-05-08T17:17:38.338Z,99427.21
2018-05-08T17:20:06.771Z,99424.42
2018-05-08T17:22:35.190Z,99417.31
2018-05-08T17:25:03.685Z,99418.50
2018-05-08T17:27:32.111Z,99417.55
2018-05-08T17:30:00.536Z,99413.42
2018-05-08T17:32:29.003Z,99419.59
2018-05-08T17:34:57.417Z,99420.23
2018-05-08T17:37:26.127Z,99420.09
2018-05-08T17:39:54.598Z,99415.16
2018-05-08T17:42:23.005Z,99413.47
2018-05-08T17:44:51.429Z,99415.27
2018-05-08T17:47:19.928Z,99415.70
2018-05-08T17:49:48.337Z,99414.59
2018-05-08T17:52:16.749Z,99414.81
2018-05-08T17:54:45.218Z,99417.22
2018-05-08T17:57:13.654Z,99418.78
2018-05-08T17:59:42.158Z,99414.47
2018-05-08T18:02:10.568Z,99424.83
2018-05-08T18:04:38.976Z,99418.02
2018-05-08T18:07:07.408Z,99418.75
2018-05-08T18:09:35.869Z,99421.00
2018-05-08T18:12:04.276Z,99419.08
2018-05-08T18:14:32.709Z,99415.80
2018-05-08T18:17:01.158Z,99419.27
2018-05-08T18:19:29.579Z,99426.58
2018-05-08T18:21:57.993Z,99416.97
2018-05-08T18:24:26.465Z,99424.11
2018-05-08T18:26:54.889Z,99421.45
2018-05-08T18:29:23.320Z,99422.84
2018-05-08T18:31:51.784Z,99416.35
2018-05-08T18:34:20.209Z,99421.45
2018-05-08T18:36:48.633Z,99414.31
2018-05-08T18:39:17.100Z,99422.54
2018-05-08T18:41:45.516Z,99423.56
2018-05-08T18:44:13.938Z,99416.83
2018-05-08T18:46:42.405Z,99424.05
2018-05-08T18:49:10.817Z,99428.04
2018-05-08T18:51:39.226Z,99422.75
2018-05-08T18:54:07.689Z,99425.62
2018-05-08T18:56:36.108Z,99425.94
2018-05-08T18:59:04.527Z,99429.16
2018-05-08T19:01:33.008Z,99431.13
2018-05-08T19:04:01.495Z,99426.55
2018-05-08T19:06:29.918Z,99430.09
2018-05-08T19:08:58.385Z,99435.69
2018-05-08T19:11:32.416Z,99433.30
2018-05-08T19:14:00.888Z,99438.14
2018-05-08T19:16:29.296Z,99444.78
2018-05-08T19:19:03.413Z,99439.75
2018-05-08T19:21:31.832Z,99445.28
2018-05-08T19:24:05.949Z,99443.16
2018-05-08T19:26:34.463Z,99446.77
2018-05-08T19:29:08.481Z,99451.09
2018-05-08T19:31:36.904Z,99448.05
2018-05-08T19:34:05.372Z,99451.19
2018-05-08T19:39:39.886Z,99456.64
2018-05-08T19:42:08.327Z,99454.77
2018-05-08T19:44:36.737Z,99454.23
2018-05-08T19:47:05.140Z,99456.08
2018-05-08T19:49:33.626Z,99447.12
2018-05-08T19:52:02.061Z,99448.04
2018-05-08T19:54:30.480Z,99450.39
2018-05-08T19:56:58.933Z,99452.50
2018-05-08T19:59:27.356Z,99457.12
2018-05-08T20:01:55.773Z,99449.08
2018-05-08T20:04:24.252Z,99451.66
2018-05-08T20:06:52.681Z,99452.23
2018-05-08T20:09:21.109Z,99447.22
2018-05-08T20:11:49.584Z,99454.89
2018-05-08T20:14:18.015Z,99449.80
2018-05-08T20:16:46.432Z,99458.11
2018-05-08T20:19:14.880Z,99451.91
2018-05-08T20:21:43.310Z,99452.98
2018-05-08T20:24:11.725Z,99456.61
2018-05-08T20:26:40.194Z,99453.98
2018-05-08T20:29:08.648Z,99454.48
2018-05-08T20:31:37.204Z,99459.02
2018-05-08T20:34:05.689Z,99453.83
2018-05-08T20:36:34.100Z,99453.45
2018-05-08T20:39:02.589Z,99456.19
2018-05-08T20:41:31.006Z,99450.66
2018-05-08T20:43:59.429Z,99454.49
2018-05-08T20:46:27.893Z,99453.75
2018-05-08T20:48:56.532Z,99444.31
2018-05-08T20:51:24.945Z,99452.73
2018-05-08T20:53:53.366Z,99456.58
2018-05-08T20:56:21.869Z,99459.55
2018-05-08T20:58:50.287Z,99463.28
2018-05-08T21:01:18.754Z,99460.01
2018-05-08T21:03:47.256Z,99459.60
2018-05-08T21:06:15.720Z,99459.70
2018-05-08T21:08:44.400Z,99459.30
2018-05-08T21:11:12.874Z,99452.83
2018-05-08T21:13:41.286Z,99455.80
2018-05-08T21:16:09.698Z,99458.12
2018-05-08T21:18:38.339Z,99450.61
2018-05-08T21:21:06.752Z,99454.36
2018-05-08T21:23:35.208Z,99456.61
2018-05-08T21:26:03.677Z,99465.51
2018-05-08T21:28:37.501Z,99461.75
2018-05-08T21:31:11.467Z,99465.31
2018-05-08T21:33:39.933Z,99464.14
2018-05-08T21:36:08.359Z,99459.59
2018-05-08T21:38:36.817Z,99465.23
2018-05-08T21:41:05.228Z,99461.48
2018-05-08T21:43:33.647Z,99460.45
2018-05-08T21:46:02.128Z,99462.25
2018-05-08T21:48:30.548Z,99457.98
2018-05-08T21:50:58.968Z,99460.77
2018-05-08T21:53:27.418Z,99468.20
2018-05-08T21:55:55.844Z,99460.41
2018-05-08T21:58:24.266Z,99464.33
2018-05-08T22:00:52.732Z,99461.14
2018-05-08T22:03:21.144Z,99462.31
2018-05-08T22:05:49.569Z,99454.84
2018-05-08T22:08:18.040Z,99465.31
2018-05-08T22:10:46.449Z,99461.39
2018-05-08T22:13:14.865Z,99463.28
2018-05-08T22:15:43.355Z,99461.77
2018-05-08T22:18:11.762Z,99463.89
2018-05-08T22:20:40.178Z,99456.11
2018-05-08T22:23:08.628Z,99456.47
2018-05-08T22:25:37.056Z,99455.42
2018-05-08T22:28:05.478Z,99453.35
2018-05-08T22:30:33.933Z,99457.97
2018-05-08T22:33:02.340Z,99453.92
2018-05-08T22:35:30.750Z,99460.37
2018-05-08T22:37:59.333Z,99455.19
2018-05-08T22:40:27.756Z,99449.32
2018-05-08T22:42:56.169Z,99453.83
2018-05-08T22:45:24.630Z,99454.69
2018-05-08T22:47:53.051Z,99448.19
2018-05-08T22:50:21.488Z,99446.22
2018-05-08T22:52:49.960Z,99445.94
2018-05-08T22:55:18.393Z,99444.31
2018-05-08T22:57:46.805Z,99452.33
2018-05-08T23:00:15.316Z,99452.42
2018-05-08T23:02:43.729Z,99443.84
2018-05-08T23:05:12.157Z,99440.61
2018-05-08T23:07:40.608Z,99441.02
2018-05-08T23:10:09.025Z,99446.17
2018-05-08T23:12:37.441Z,99441.17
2018-05-08T23:15:05.896Z,99433.60
2018-05-08T23:17:34.312Z,99435.98
2018-05-08T23:20:02.765Z,99430.17
2018-05-08T23:22:31.245Z,99433.85
2018-05-08T23:24:59.664Z,99437.59
2018-05-08T23:27:28.079Z,99434.70
2018-05-08T23:29:56.555Z,99432.81
2018-05-08T23:32:24.987Z,99433.59
2018-05-08T23:34:53.413Z,99429.22
2018-05-08T23:37:21.870Z,99428.20
2018-05-08T23:39:50.290Z,99423.64
2018-05-08T23:42:18.715Z,99426.48
2018-05-08T23:44:47.181Z,99432.31
2018-05-08T23:47:15.604Z,99427.63
2018-05-08T23:49:44.025Z,99430.54
2018-05-08T23:52:12.477Z,99420.38
2018-05-08T23:54:40.880Z,99415.58
2018-05-08T23:57:09.293Z,99421.39
2018-05-08T23:59:37.748Z,99422.02
